Time;durP1;ratioP1;P1;durP2;ratioP2;P2;SDS_P1;SDS_P2;PMS_P1;PMS_P2;Temp;Humidity;BMP_temperature;BMP_pressure;BME280_temperature;BME280_humidity;BME280_pressure;Samples;Min_cycle;Max_cycle;Signal;HPM_P1;HPM_P2
2021/12/19 00:04:35;;;;;;;1.45;1.35;;;;;;;7.08;83.16;103011.25;5083778;29;20040;-81
2021/12/19 00:09:54;;;;;;;2.30;1.60;;;;;;;7.13;82.83;103015.69;5083397;29;20044;-83
2021/12/19 00:12:25;;;;;;;2.00;1.90;;;;;;;7.14;82.65;103007.91;5104380;29;20091;-82
2021/12/19 00:14:55;;;;;;;1.73;1.63;;;;;;;7.08;83.51;103010.34;5097872;29;20112;-83
2021/12/19 00:17:26;;;;;;;1.15;1.13;;;;;;;7.13;82.97;103000.91;5100058;29;20405;-84
2021/12/19 00:19:56;;;;;;;1.50;1.23;;;;;;;7.05;83.91;103002.47;5067025;29;20035;-84
2021/12/19 00:22:27;;;;;;;1.08;1.08;;;;;;;7.14;83.25;102996.56;5066569;29;20032;-82
2021/12/19 00:24:58;;;;;;;1.85;1.73;;;;;;;7.14;83.30;102997.47;5066565;29;20040;-81
2021/12/19 00:27:28;;;;;;;1.55;1.50;;;;;;;7.14;83.17;102996.56;5082967;29;20504;-82
2021/12/19 00:29:59;;;;;;;0.93;0.93;;;;;;;7.14;83.54;102981.78;5063841;29;20108;-83
2021/12/19 00:32:29;;;;;;;1.00;1.00;;;;;;;7.12;83.22;102986.09;5098670;29;20031;-82
2021/12/19 00:35:00;;;;;;;0.98;0.98;;;;;;;7.15;82.90;102983.53;5084714;29;20051;-83
2021/12/19 00:37:31;;;;;;;0.90;0.90;;;;;;;7.20;82.75;102976.72;5119780;28;20088;-82
2021/12/19 00:40:03;;;;;;;1.13;1.13;;;;;;;7.17;82.86;102978.38;5116910;29;20051;-83
2021/12/19 00:42:35;;;;;;;0.55;0.55;;;;;;;7.17;83.33;102974.00;5054455;29;20040;-81
2021/12/19 00:45:19;;;;;;;1.45;1.40;;;;;;;7.20;83.10;102979.31;5083690;29;20044;-82
2021/12/19 00:47:50;;;;;;;1.00;1.00;;;;;;;7.19;83.24;102974.06;5076761;29;20043;-81
2021/12/19 00:50:22;;;;;;;1.70;1.60;;;;;;;7.14;83.28;102973.97;5111615;29;20052;-82
2021/12/19 00:52:52;;;;;;;1.35;1.35;;;;;;;7.16;83.21;102974.00;5065587;29;20340;-83
2021/12/19 00:55:27;;;;;;;1.73;1.63;;;;;;;7.32;82.94;102969.97;5096846;29;20048;-83
2021/12/19 00:57:58;;;;;;;0.70;0.70;;;;;;;7.22;82.61;102963.69;5069418;29;20024;-82
2021/12/19 01:00:32;;;;;;;1.60;1.50;;;;;;;7.15;83.02;102967.00;5068336;29;20044;-83
2021/12/19 01:03:04;;;;;;;1.33;1.25;;;;;;;7.15;82.79;102967.00;5068623;29;20028;-82
2021/12/19 01:05:38;;;;;;;1.05;1.05;;;;;;;7.30;82.81;102963.88;5082245;29;20044;-82
2021/12/19 01:08:11;;;;;;;1.02;1.02;;;;;;;7.21;82.38;102961.91;5079425;29;20036;-82
2021/12/19 01:10:44;;;;;;;0.93;0.93;;;;;;;7.21;82.55;102962.81;5118567;28;20446;-83
2021/12/19 01:13:16;;;;;;;1.17;1.17;;;;;;;7.30;82.30;102958.66;5081691;29;20311;-83
2021/12/19 01:15:50;;;;;;;1.75;1.65;;;;;;;7.16;83.12;102959.19;5082453;29;20330;-83
2021/12/19 01:18:20;;;;;;;3.35;2.08;;;;;;;7.27;83.08;102961.16;5082918;29;20468;-82
2021/12/19 01:20:51;;;;;;;2.38;2.20;;;;;;;7.00;83.58;102957.06;5066013;29;20047;-83
2021/12/19 01:23:22;;;;;;;2.75;1.42;;;;;;;7.12;82.86;102959.97;5065551;29;20039;-82
2021/12/19 01:25:53;;;;;;;1.25;1.25;;;;;;;7.00;83.58;102962.28;5114674;29;20047;-82
2021/12/19 01:28:23;;;;;;;1.40;1.33;;;;;;;7.08;83.62;102960.75;5090985;29;20032;-83
2021/12/19 01:30:54;;;;;;;1.75;1.58;;;;;;;7.17;82.68;102958.34;5065172;29;20060;-82
2021/12/19 01:33:24;;;;;;;0.95;0.95;;;;;;;7.10;83.22;102953.84;5094855;29;20124;-81
2021/12/19 01:35:58;;;;;;;2.33;2.22;;;;;;;7.07;83.40;102952.03;5049082;29;20040;-81
2021/12/19 01:38:30;;;;;;;1.17;1.10;;;;;;;7.13;82.96;102953.91;5065986;29;20582;-82
2021/12/19 01:41:00;;;;;;;1.65;1.55;;;;;;;7.14;83.05;102955.69;5111019;29;20048;-82
2021/12/19 01:43:31;;;;;;;0.90;0.90;;;;;;;7.17;83.08;102950.50;5081550;29;20149;-83
2021/12/19 01:46:02;;;;;;;2.45;2.28;;;;;;;7.15;82.51;102952.19;5065364;29;20043;-83
2021/12/19 01:48:33;;;;;;;1.35;1.33;;;;;;;7.17;82.76;102950.50;5065264;29;20032;-82
2021/12/19 01:51:04;;;;;;;3.05;2.80;;;;;;;7.17;82.93;102950.50;5062457;29;20496;-82
2021/12/19 01:53:34;;;;;;;1.13;1.08;;;;;;;7.19;82.88;102937.53;5063099;29;20044;-83
2021/12/19 01:56:07;;;;;;;1.30;1.23;;;;;;;7.19;82.63;102941.00;5095438;29;20489;-81
2021/12/19 01:58:37;;;;;;;1.73;1.63;;;;;;;7.22;82.44;102930.63;5065323;29;20360;-81
2021/12/19 02:01:08;;;;;;;1.13;1.13;;;;;;;7.16;83.02;102933.09;5113643;29;20054;-81
2021/12/19 02:03:39;;;;;;;1.95;1.77;;;;;;;7.10;83.31;102927.72;5053482;29;20075;-82
2021/12/19 02:06:09;;;;;;;0.75;0.75;;;;;;;7.15;82.87;102928.69;5066368;29;20123;-81
2021/12/19 02:08:40;;;;;;;5.68;1.42;;;;;;;7.17;82.85;102916.56;5053376;29;20036;-82
2021/12/19 02:11:11;;;;;;;1.88;1.00;;;;;;;7.14;82.83;102924.34;5102105;29;20036;-83
2021/12/19 02:13:42;;;;;;;1.48;1.38;;;;;;;7.13;83.33;102927.81;5096120;29;20235;-84
2021/12/19 02:16:12;;;;;;;3.13;2.83;;;;;;;7.20;82.73;102920.97;5050064;29;20032;-83
2021/12/19 02:18:43;;;;;;;2.95;1.75;;;;;;;7.21;82.84;102921.03;5065124;29;20067;-83
2021/12/19 02:21:13;;;;;;;2.67;1.85;;;;;;;7.17;82.90;102918.31;5088547;29;20079;-82
2021/12/19 02:23:44;;;;;;;2.33;2.22;;;;;;;7.19;83.08;102917.50;5113523;29;20048;-82
2021/12/19 02:26:15;;;;;;;0.80;0.80;;;;;;;7.17;83.05;102913.09;5081895;29;20094;-83
2021/12/19 02:28:46;;;;;;;2.13;2.03;;;;;;;7.07;83.78;102920.72;5051085;29;20036;-82
2021/12/19 02:31:16;;;;;;;1.98;1.80;;;;;;;7.14;83.19;102913.00;5065424;29;20405;-83
2021/12/19 02:34:02;;;;;;;1.45;1.35;;;;;;;7.18;83.08;102920.09;5098210;29;20409;-83
2021/12/19 02:50:32;;;;;;;0.73;0.73;;;;;;;7.08;83.21;102887.66;5113070;29;20079;-82
2021/12/19 02:53:03;;;;;;;1.83;1.73;;;;;;;7.11;83.29;102885.13;5060720;29;20103;-81
2021/12/19 02:55:33;;;;;;;23.48;2.05;;;;;;;7.15;83.08;102883.44;5050368;29;20032;-81
2021/12/19 02:58:04;;;;;;;1.25;1.25;;;;;;;7.19;82.93;102891.38;5092632;29;20025;-81
2021/12/19 03:00:34;;;;;;;1.40;1.30;;;;;;;7.20;82.82;102892.25;5099825;29;20044;-82
2021/12/19 03:03:05;;;;;;;1.98;1.88;;;;;;;7.13;83.40;102893.88;5073176;29;20488;-82
2021/12/19 03:05:37;;;;;;;1.85;1.75;;;;;;;7.07;83.47;102885.88;5064219;29;20143;-81
2021/12/19 03:08:09;;;;;;;2.67;2.08;;;;;;;7.12;83.06;102883.38;5059998;29;20028;-81
2021/12/19 03:18:52;;;;;;;1.20;1.15;;;;;;;7.19;82.89;102875.72;5083561;29;20512;-82
2021/12/19 03:21:24;;;;;;;1.13;1.10;;;;;;;7.19;82.76;102869.63;5078854;29;20052;-81
2021/12/19 03:23:55;;;;;;;1.90;1.80;;;;;;;7.23;83.10;102868.84;5063918;29;20033;-81
2021/12/19 03:26:25;;;;;;;1.95;1.85;;;;;;;7.10;83.17;102865.06;5063864;29;20095;-80
2021/12/19 03:28:56;;;;;;;1.13;1.10;;;;;;;7.14;83.28;102864.31;5063112;29;20320;-80
2021/12/19 03:31:26;;;;;;;1.15;1.05;;;;;;;7.08;83.76;102857.22;5062360;29;20112;-81
2021/12/19 03:33:57;;;;;;;1.17;1.17;;;;;;;7.15;83.24;102850.38;5080233;29;20028;-81
2021/12/19 03:36:28;;;;;;;1.13;1.13;;;;;;;7.16;83.20;102857.38;5097250;29;20485;-82
2021/12/19 03:39:01;;;;;;;1.60;1.52;;;;;;;7.12;83.70;102852.94;5095735;29;20047;-83
2021/12/19 03:41:34;;;;;;;1.30;1.20;;;;;;;7.22;82.99;102859.22;5049776;29;20117;-82
2021/12/19 03:44:05;;;;;;;;;;;;;;;7.19;83.15;102857.44;5079713;29;20404;-81
2021/12/19 03:46:36;;;;;;;0.95;0.95;;;;;;;7.23;83.19;102847.94;5083200;29;19915;-81
2021/12/19 03:49:06;;;;;;;2.72;1.77;;;;;;;7.19;83.28;102849.63;5073841;29;20068;-81
2021/12/19 03:51:37;;;;;;;1.10;1.10;;;;;;;7.23;83.49;102848.81;5096431;29;20127;-82
2021/12/19 03:54:07;;;;;;;1.00;1.00;;;;;;;7.15;83.44;102846.91;5081486;29;20051;-81
2021/12/19 03:56:38;;;;;;;1.17;1.17;;;;;;;7.14;83.77;102851.25;5068477;29;20043;-82
2021/12/19 03:59:08;;;;;;;2.50;2.30;;;;;;;7.15;82.94;102841.69;5081334;29;20055;-83
2021/12/19 04:01:42;;;;;;;1.92;1.83;;;;;;;7.19;83.32;102844.38;5068265;29;20505;-83
2021/12/19 04:04:13;;;;;;;1.42;1.38;;;;;;;7.17;83.61;102850.44;5095381;29;20024;-82
2021/12/19 04:06:43;;;;;;;0.80;0.80;;;;;;;7.23;83.38;102845.34;5064059;29;20148;-82
2021/12/19 04:09:14;;;;;;;1.77;1.67;;;;;;;7.24;82.60;102834.91;5095869;29;20024;-82
2021/12/19 04:11:44;;;;;;;1.15;1.08;;;;;;;7.21;82.83;102837.47;5075350;29;20404;-82
2021/12/19 04:14:15;;;;;;;2.33;2.20;;;;;;;7.20;83.54;102840.94;5046785;29;20066;-82
2021/12/19 04:16:45;;;;;;;1.75;1.65;;;;;;;7.21;83.28;102836.59;5082584;29;20051;-81
2021/12/19 04:19:16;;;;;;;1.45;1.42;;;;;;;7.19;82.93;102823.50;5068854;29;20044;-82
2021/12/19 04:21:47;;;;;;;1.67;1.58;;;;;;;7.16;83.56;102818.19;5091108;29;20024;-82
2021/12/19 04:24:18;;;;;;;2.08;1.98;;;;;;;7.18;83.27;102815.66;5083950;29;20044;-82
2021/12/19 04:26:48;;;;;;;2.45;2.25;;;;;;;7.09;83.76;102806.78;5068708;29;20306;-83
2021/12/19 04:29:19;;;;;;;1.65;1.55;;;;;;;7.20;83.46;102799.16;5117183;29;20374;-82
2021/12/19 04:31:51;;;;;;;2.15;2.05;;;;;;;7.23;83.24;102793.97;5082295;29;20036;-82
2021/12/19 04:34:23;;;;;;;1.20;1.15;;;;;;;7.11;83.97;102787.66;5082671;29;20378;-83
2021/12/19 04:37:01;;;;;;;1.45;1.35;;;;;;;7.10;83.82;102791.97;5085390;29;20055;-82
2021/12/19 04:39:51;;;;;;;0.93;0.93;;;;;;;7.21;83.57;102789.59;5067529;29;20040;-81
2021/12/19 04:51:14;;;;;;;1.13;1.10;;;;;;;7.15;83.26;102779.88;5066675;29;20418;-83
2021/12/19 04:57:03;;;;;;;1.08;1.08;;;;;;;7.13;83.66;102776.38;5030580;29;20033;-82
2021/12/19 05:02:25;;;;;;;1.95;1.85;;;;;;;7.16;83.95;102763.38;5110059;29;20672;-82
2021/12/19 05:16:06;;;;;;;0.52;0.52;;;;;;;7.28;83.71;102777.53;5114591;29;20416;-82
2021/12/19 05:18:39;;;;;;;0.88;0.88;;;;;;;7.19;83.12;102771.28;5066869;29;20036;-81
2021/12/19 05:21:16;;;;;;;0.90;0.90;;;;;;;7.25;83.21;102770.53;5083608;29;20075;-82
2021/12/19 05:24:05;;;;;;;0.73;0.73;;;;;;;7.06;83.82;102770.16;5065948;29;20123;-81
2021/12/19 05:26:42;;;;;;;0.95;0.95;;;;;;;7.23;83.17;102767.88;5096708;29;20623;-82
2021/12/19 05:29:12;;;;;;;0.95;0.95;;;;;;;7.16;83.75;102776.44;5098982;29;20032;-81
2021/12/19 05:31:44;;;;;;;0.93;0.93;;;;;;;7.21;83.52;102763.47;5099559;29;20059;-81
2021/12/19 05:34:14;;;;;;;0.63;0.63;;;;;;;7.21;83.39;102764.38;5069762;29;20047;-80
2021/12/19 05:45:19;;;;;;;0.70;0.70;;;;;;;7.17;83.32;102762.53;5084307;29;20433;-84
2021/12/19 05:47:51;;;;;;;1.05;1.05;;;;;;;7.12;83.84;102760.69;5066739;29;20055;-83
2021/12/19 05:50:23;;;;;;;0.95;0.95;;;;;;;7.15;83.45;102766.84;5081636;29;20152;-84
2021/12/19 05:52:53;;;;;;;0.68;0.68;;;;;;;7.05;83.96;102763.16;5083800;29;20051;-83
2021/12/19 05:55:26;;;;;;;1.35;1.25;;;;;;;7.16;83.34;102752.06;5079630;29;20035;-82
2021/12/19 05:57:57;;;;;;;2.10;1.92;;;;;;;7.14;83.25;102746.81;5065120;29;20437;-82
2021/12/19 06:00:28;;;;;;;0.55;0.55;;;;;;;7.14;83.22;102751.16;5082135;29;20376;-82
2021/12/19 06:03:02;;;;;;;4.78;2.72;;;;;;;7.13;83.78;102745.06;5063556;29;20043;-84
2021/12/19 06:05:33;;;;;;;2.03;1.92;;;;;;;7.04;83.98;102744.88;5095797;29;20046;-82
2021/12/19 06:08:04;;;;;;;0.82;0.82;;;;;;;7.05;83.86;102747.50;5048111;29;20118;-81
2021/12/19 06:10:34;;;;;;;1.25;1.20;;;;;;;7.04;83.72;102744.88;5077986;29;20699;-81
2021/12/19 06:13:04;;;;;;;0.98;0.98;;;;;;;6.94;84.09;102746.44;5077938;29;20036;-82
2021/12/19 06:15:36;;;;;;;0.65;0.65;;;;;;;7.07;83.69;102737.09;5084728;29;20052;-81
2021/12/19 06:18:07;;;;;;;3.08;0.85;;;;;;;7.04;83.75;102745.75;5061607;29;20024;-81
2021/12/19 06:20:37;;;;;;;1.98;1.88;;;;;;;7.08;83.68;102739.75;5092765;29;20132;-82
2021/12/19 06:23:09;;;;;;;1.80;1.70;;;;;;;7.16;83.23;102734.66;5096195;29;20401;-82
2021/12/19 06:25:45;;;;;;;2.45;1.92;;;;;;;7.17;83.19;102741.66;5080723;29;20060;-84
2021/12/19 06:28:18;;;;;;;1.17;1.17;;;;;;;7.09;83.59;102738.00;5100441;29;20148;-83
2021/12/19 06:30:49;;;;;;;3.38;0.98;;;;;;;7.07;83.40;102734.47;5045528;29;20078;-83
2021/12/19 06:33:19;;;;;;;0.60;0.60;;;;;;;7.04;83.79;102737.03;5075984;29;20028;-83
2021/12/19 06:35:50;;;;;;;0.75;0.75;;;;;;;6.98;84.68;102736.94;5096322;29;20441;-84
2021/12/19 06:38:20;;;;;;;1.40;1.35;;;;;;;6.88;84.65;102738.44;5111182;29;20033;-83
2021/12/19 06:40:51;;;;;;;1.02;1.02;;;;;;;7.05;83.93;102744.03;5093743;29;20036;-83
2021/12/19 06:43:21;;;;;;;0.80;0.80;;;;;;;6.95;84.24;102736.84;5099661;29;20417;-83
2021/12/19 06:45:53;;;;;;;0.70;0.70;;;;;;;6.85;85.00;102728.84;5095622;29;20567;-82
2021/12/19 06:48:24;;;;;;;2.67;2.47;;;;;;;6.88;84.61;102728.91;5079784;29;20036;-84
2021/12/19 06:50:56;;;;;;;1.13;1.02;;;;;;;6.95;84.31;102721.19;5076998;29;20042;-83
2021/12/19 06:53:26;;;;;;;0.57;0.57;;;;;;;6.79;84.33;102733.94;5109421;28;20024;-84
2021/12/19 06:55:57;;;;;;;2.17;1.40;;;;;;;6.72;84.80;102737.25;5078196;29;20103;-83
2021/12/19 06:58:27;;;;;;;2.97;1.60;;;;;;;6.74;84.81;102736.44;5075463;29;20515;-83
2021/12/19 07:00:57;;;;;;;1.60;1.48;;;;;;;6.72;84.56;102732.03;5080893;29;20040;-83
2021/12/19 07:03:29;;;;;;;2.08;1.35;;;;;;;6.69;84.61;102737.19;5067987;29;20226;-83
2021/12/19 07:06:00;;;;;;;2.85;2.53;;;;;;;6.72;84.40;102737.25;5074975;29;20257;-84
2021/12/19 07:08:31;;;;;;;0.95;0.95;;;;;;;6.83;83.85;102732.25;5043876;29;20054;-85
2021/12/19 07:11:01;;;;;;;1.38;1.27;;;;;;;6.87;83.30;102727.16;5079292;29;20047;-85
2021/12/19 07:13:32;;;;;;;1.17;1.17;;;;;;;7.09;82.71;102730.19;5106140;28;20062;-85
2021/12/19 07:16:03;;;;;;;1.45;1.35;;;;;;;6.82;83.08;102730.50;5093430;29;20040;-84
2021/12/19 07:18:36;;;;;;;0.90;0.90;;;;;;;6.78;82.95;102724.34;5059313;29;20035;-83
2021/12/19 07:21:07;;;;;;;0.68;0.68;;;;;;;6.89;82.73;102712.41;5092681;29;20071;-84
2021/12/19 07:23:38;;;;;;;1.05;1.05;;;;;;;6.92;82.47;102715.06;5081199;29;20340;-85
2021/12/19 07:26:08;;;;;;;0.50;0.50;;;;;;;6.85;82.31;102718.41;5084975;29;20890;-83
2021/12/19 07:28:48;;;;;;;0.55;0.55;;;;;;;6.88;82.47;102720.19;5064863;29;20032;-84
2021/12/19 07:31:20;;;;;;;1.13;1.05;;;;;;;6.84;82.58;102727.06;5069273;29;20040;-83
2021/12/19 07:33:51;;;;;;;0.52;0.52;;;;;;;6.81;82.71;102720.91;5052645;29;20047;-86
2021/12/19 07:36:24;;;;;;;0.50;0.50;;;;;;;6.81;82.50;102713.97;5077830;29;20163;-85
2021/12/19 07:39:04;;;;;;;0.40;0.40;;;;;;;6.91;81.73;102713.28;5081429;29;20043;-84
2021/12/19 07:41:35;;;;;;;1.45;1.45;;;;;;;6.75;82.85;102716.44;5094285;29;20445;-84
2021/12/19 07:44:07;;;;;;;5.13;3.17;;;;;;;6.72;83.05;102717.25;5095160;29;20032;-84
2021/12/19 07:46:37;;;;;;;0.82;0.82;;;;;;;6.64;83.29;102718.81;5081022;29;20585;-84
2021/12/19 07:49:08;;;;;;;0.60;0.60;;;;;;;6.59;83.65;102717.84;5101895;29;20036;-82
2021/12/19 07:51:39;;;;;;;0.50;0.50;;;;;;;6.61;83.40;102714.44;5063854;29;20481;-82
2021/12/19 07:54:09;;;;;;;1.50;1.40;;;;;;;6.55;83.68;102705.59;5066496;29;20044;-83
2021/12/19 07:56:40;;;;;;;0.82;0.80;;;;;;;6.78;83.44;102711.28;5070202;29;20021;-85
2021/12/19 07:59:10;;;;;;;0.80;0.80;;;;;;;6.65;83.46;102698.84;5050542;29;20501;-85
2021/12/19 08:01:41;;;;;;;2.05;1.42;;;;;;;6.56;83.34;102702.13;5082562;29;20376;-82
2021/12/19 08:04:12;;;;;;;1.55;1.45;;;;;;;6.67;83.37;102698.03;5079369;29;20036;-86
2021/12/19 08:06:42;;;;;;;1.42;1.33;;;;;;;6.65;83.43;102698.84;5050398;29;20197;-84
2021/12/19 08:09:22;;;;;;;0.50;0.50;;;;;;;6.62;83.80;102699.66;5072801;29;20040;-86
2021/12/19 08:11:53;;;;;;;1.38;1.25;;;;;;;6.58;83.58;102701.31;5083819;29;20476;-83
2021/12/19 08:14:23;;;;;;;0.95;0.95;;;;;;;6.65;83.40;102693.63;5065420;29;20067;-83
2021/12/19 08:16:54;;;;;;;0.88;0.88;;;;;;;6.71;83.79;102692.00;5052283;29;20051;-83
2021/12/19 08:19:25;;;;;;;1.58;1.45;;;;;;;6.67;83.05;102692.81;5048613;29;20036;-84
2021/12/19 08:21:55;;;;;;;1.33;1.33;;;;;;;6.67;83.36;102699.75;5111540;29;20028;-83
2021/12/19 08:24:26;;;;;;;0.88;0.85;;;;;;;6.74;83.49;102693.78;5065773;29;20082;-83
2021/12/19 08:26:56;;;;;;;1.05;1.05;;;;;;;6.69;83.59;102691.13;5081830;29;20276;-84
2021/12/19 08:29:28;;;;;;;2.10;2.00;;;;;;;6.76;83.34;102681.69;5051408;29;20104;-80
2021/12/19 08:31:58;;;;;;;0.90;0.90;;;;;;;6.76;83.26;102690.41;5100831;29;20441;-81
2021/12/19 08:34:29;;;;;;;1.83;1.73;;;;;;;6.80;83.35;102680.91;5115462;29;20052;-81
2021/12/19 08:36:59;;;;;;;0.57;0.57;;;;;;;6.78;83.43;102680.84;5083057;29;20373;-82
2021/12/19 08:39:32;;;;;;;0.57;0.57;;;;;;;6.67;83.53;102681.47;5068544;29;20486;-82
2021/12/19 08:42:03;;;;;;;0.60;0.60;;;;;;;6.72;83.26;102692.91;5049860;29;20053;-82
2021/12/19 08:44:33;;;;;;;0.80;0.80;;;;;;;6.74;83.34;102681.66;5096616;29;20051;-80
2021/12/19 08:47:05;;;;;;;1.20;1.13;;;;;;;6.74;83.35;102684.25;5050471;29;20048;-80
2021/12/19 08:49:35;;;;;;;0.95;0.95;;;;;;;6.78;84.27;102678.25;5080940;29;20075;-80
2021/12/19 08:52:07;;;;;;;2.05;1.88;;;;;;;6.71;84.30;102678.09;5083008;29;20048;-81
2021/12/19 08:54:39;;;;;;;0.50;0.50;;;;;;;6.84;83.53;102674.00;5100893;29;20040;-82
2021/12/19 08:57:09;;;;;;;0.73;0.73;;;;;;;6.81;83.44;102667.00;5098588;29;20036;-82
2021/12/19 08:59:42;;;;;;;1.63;1.52;;;;;;;6.90;83.54;102672.38;5080076;29;20094;-81
2021/12/19 09:02:12;;;;;;;0.80;0.80;;;;;;;6.88;83.55;102673.22;5095607;29;20615;-81
2021/12/19 09:04:43;;;;;;;0.90;0.90;;;;;;;6.82;83.84;102671.34;5081286;29;20048;-81
2021/12/19 09:07:14;;;;;;;1.15;1.05;;;;;;;6.80;83.95;102674.78;5111960;29;20985;-84
2021/12/19 09:09:45;;;;;;;1.27;1.23;;;;;;;6.88;83.85;102671.50;5079864;29;20075;-83
2021/12/19 09:12:16;;;;;;;0.50;0.50;;;;;;;6.91;83.65;102674.16;5078404;29;20051;-81
2021/12/19 09:14:47;;;;;;;0.50;0.50;;;;;;;6.86;84.05;102667.97;5095210;29;20036;-84
2021/12/19 09:17:17;;;;;;;0.47;0.47;;;;;;;6.91;83.33;102674.16;5063770;29;20052;-84
2021/12/19 09:19:48;;;;;;;0.55;0.55;;;;;;;6.88;84.04;102675.81;5097873;29;20137;-81
2021/12/19 09:22:18;;;;;;;0.60;0.60;;;;;;;6.88;83.67;102676.72;5063823;29;20020;-85
2021/12/19 09:24:49;;;;;;;0.43;0.43;;;;;;;6.82;84.01;102668.75;5080620;29;20072;-84
2021/12/19 09:27:20;;;;;;;1.08;1.08;;;;;;;6.92;83.76;102673.31;5065401;29;20346;-85
2021/12/19 09:29:50;;;;;;;0.57;0.57;;;;;;;6.96;83.85;102669.03;5089377;29;20059;-81
2021/12/19 09:32:23;;;;;;;0.47;0.47;;;;;;;6.92;83.95;102660.25;5091803;29;20036;-82
2021/12/19 09:34:54;;;;;;;0.88;0.85;;;;;;;7.00;83.64;102667.34;5047234;29;20071;-81
2021/12/19 09:37:27;;;;;;;0.70;0.70;;;;;;;7.11;83.51;102667.56;5049318;29;20031;-84
2021/12/19 09:40:01;;;;;;;3.85;1.25;;;;;;;6.99;83.81;102674.31;5047723;29;20132;-83
2021/12/19 09:42:35;;;;;;;0.70;0.70;;;;;;;7.01;84.25;102672.63;5064384;29;20114;-85
2021/12/19 09:45:06;;;;;;;0.98;0.98;;;;;;;7.09;83.37;102676.25;5053527;29;20056;-83
2021/12/19 09:47:39;;;;;;;0.95;0.95;;;;;;;7.09;83.72;102664.91;5079915;29;20079;-83
2021/12/19 09:50:11;;;;;;;0.82;0.82;;;;;;;7.05;84.18;102657.91;5098619;29;20054;-85
2021/12/19 09:52:41;;;;;;;0.40;0.40;;;;;;;7.06;84.24;102657.03;5069570;29;20126;-82
2021/12/19 09:55:17;;;;;;;0.70;0.70;;;;;;;7.10;83.72;102658.84;5082904;29;20043;-85
2021/12/19 09:57:53;;;;;;;1.10;1.02;;;;;;;7.18;83.95;102654.66;5079775;29;20032;-83
2021/12/19 10:00:24;;;;;;;1.35;1.23;;;;;;;7.17;83.58;102647.66;5062374;29;20122;-84
2021/12/19 10:02:54;;;;;;;0.60;0.60;;;;;;;7.10;84.14;102651.00;5083991;29;20572;-83
2021/12/19 10:05:27;;;;;;;0.55;0.55;;;;;;;7.15;84.01;102643.28;5083204;29;20028;-83
2021/12/19 10:08:03;;;;;;;0.90;0.90;;;;;;;7.07;83.93;102640.50;5088651;29;20467;-84
2021/12/19 10:10:47;;;;;;;0.45;0.45;;;;;;;7.04;84.40;102641.34;5069924;29;20131;-83
2021/12/19 10:13:30;;;;;;;0.50;0.50;;;;;;;7.09;84.09;102633.59;5081117;29;20056;-84
2021/12/19 10:16:20;;;;;;;0.77;0.77;;;;;;;7.05;84.50;102621.34;5094714;29;20055;-84
2021/12/19 10:18:53;;;;;;;1.38;1.25;;;;;;;7.13;84.58;102627.59;5063763;29;20125;-85
2021/12/19 10:21:23;;;;;;;0.68;0.68;;;;;;;7.11;84.16;102625.81;5087097;28;20045;-83
2021/12/19 10:24:00;;;;;;;0.50;0.50;;;;;;;7.16;84.43;102616.31;5062612;29;20407;-83
2021/12/19 10:26:41;;;;;;;0.50;0.50;;;;;;;7.15;83.88;102618.03;5064248;29;20691;-84
2021/12/19 10:29:11;;;;;;;0.40;0.40;;;;;;;7.22;83.84;102614.69;5093590;29;20472;-84
2021/12/19 10:31:42;;;;;;;0.65;0.65;;;;;;;7.35;83.70;102609.66;5077056;29;20039;-84
2021/12/19 10:34:23;;;;;;;0.50;0.50;;;;;;;7.29;84.00;102606.97;5060930;29;20032;-83
2021/12/19 10:36:53;;;;;;;0.82;0.82;;;;;;;7.31;83.67;102607.88;5062307;29;20028;-84
2021/12/19 10:39:26;;;;;;;0.50;0.50;;;;;;;7.19;84.04;102611.16;5076153;29;20046;-84
2021/12/19 10:41:59;;;;;;;1.17;1.10;;;;;;;7.33;83.93;102607.03;5110254;29;20393;-83
2021/12/19 10:47:26;;;;;;;1.27;1.27;;;;;;;7.22;84.40;102590.31;5092237;29;20673;-83
2021/12/19 10:49:56;;;;;;;0.40;0.40;;;;;;;7.14;84.97;102584.06;5061624;29;20075;-84
2021/12/19 10:52:36;;;;;;;1.17;1.17;;;;;;;7.30;84.52;102583.47;5060477;29;20052;-83
2021/12/19 10:55:10;;;;;;;0.60;0.60;;;;;;;7.24;84.05;102578.16;5092812;29;20144;-85
2021/12/19 10:57:42;;;;;;;0.75;0.75;;;;;;;7.24;84.44;102568.59;5075325;29;20038;-84
2021/12/19 11:00:25;;;;;;;0.55;0.55;;;;;;;7.39;83.51;102570.56;5045867;29;20457;-83
2021/12/19 11:02:56;;;;;;;0.55;0.55;;;;;;;7.47;83.12;102572.41;5088763;29;20066;-84
2021/12/19 11:05:40;;;;;;;0.95;0.95;;;;;;;7.39;83.60;102564.47;5077602;29;20483;-84
2021/12/19 11:08:10;;;;;;;0.60;0.60;;;;;;;7.33;83.93;102553.91;5078222;29;20060;-83
2021/12/19 11:10:41;;;;;;;1.40;1.30;;;;;;;7.34;84.12;102547.84;5074641;29;20063;-84
2021/12/19 11:13:14;;;;;;;1.23;1.13;;;;;;;7.43;83.60;102540.16;5092120;29;20040;-85
2021/12/19 11:15:45;;;;;;;0.80;0.80;;;;;;;7.34;83.91;102547.84;5078554;29;20047;-84
2021/12/19 11:18:15;;;;;;;3.70;1.17;;;;;;;7.34;83.89;102540.00;5045272;29;20405;-84
2021/12/19 11:20:46;;;;;;;0.77;0.77;;;;;;;7.42;84.15;102533.16;5103698;29;20064;-84
2021/12/19 11:23:17;;;;;;;0.85;0.85;;;;;;;7.35;84.50;102532.22;5068527;29;20040;-84
2021/12/19 11:25:48;;;;;;;0.90;0.90;;;;;;;7.38;84.00;102527.03;5085000;29;20091;-85
2021/12/19 11:28:19;;;;;;;0.70;0.70;;;;;;;7.46;83.54;102521.94;5098267;29;20031;-84
2021/12/19 11:30:50;;;;;;;0.40;0.40;;;;;;;7.42;83.48;102527.09;5049889;29;20052;-84
2021/12/19 11:33:39;;;;;;;0.85;0.77;;;;;;;7.29;84.46;102526.88;5073762;29;20039;-84
2021/12/19 11:36:11;;;;;;;0.70;0.70;;;;;;;7.40;83.74;102527.03;5071696;29;20046;-84
2021/12/19 11:38:45;;;;;;;0.40;0.40;;;;;;;7.54;83.72;102516.81;5084569;29;20028;-85
2021/12/19 11:41:16;;;;;;;0.30;0.30;;;;;;;7.50;83.33;102515.03;5088787;29;20043;-84
2021/12/19 11:43:49;;;;;;;0.40;0.40;;;;;;;7.49;83.70;102519.34;5102748;29;20024;-85
2021/12/19 11:46:49;;;;;;;0.55;0.55;;;;;;;7.46;84.04;102510.59;5090412;29;20042;-84
2021/12/19 11:49:26;;;;;;;0.63;0.63;;;;;;;7.28;84.90;102508.59;5072969;29;20052;-83
2021/12/19 11:52:30;;;;;;;0.50;0.50;;;;;;;7.43;83.69;102498.38;5084054;29;20130;-86
2021/12/19 11:55:13;;;;;;;0.70;0.70;;;;;;;7.41;83.87;102500.06;5062227;29;20524;-85
2021/12/19 11:58:06;;;;;;;0.82;0.82;;;;;;;7.30;83.83;102486.88;5107419;29;20119;-83
2021/12/19 12:00:47;;;;;;;0.70;0.70;;;;;;;7.31;83.35;102492.97;5057347;29;20052;-84
2021/12/19 12:03:21;;;;;;;0.60;0.60;;;;;;;7.33;84.19;102483.41;5052004;29;20658;-83
2021/12/19 12:06:15;;;;;;;0.73;0.73;;;;;;;7.32;83.45;102481.66;5084153;29;20052;-85
2021/12/19 12:09:24;;;;;;;0.50;0.50;;;;;;;7.19;84.04;102480.63;5062925;29;20082;-83
2021/12/19 12:12:05;;;;;;;0.88;0.85;;;;;;;7.13;84.04;102472.66;5081849;29;20052;-84
2021/12/19 12:14:59;;;;;;;0.70;0.70;;;;;;;7.29;83.82;102473.78;5081156;29;20051;-84
2021/12/19 12:17:39;;;;;;;0.90;0.90;;;;;;;7.24;83.82;102471.13;5050981;29;20194;-83
2021/12/19 12:20:21;;;;;;;0.82;0.82;;;;;;;7.22;83.82;102473.72;5071863;29;20040;-84
2021/12/19 12:22:55;;;;;;;2.05;1.40;;;;;;;7.42;83.49;102470.50;5074130;29;20032;-84
2021/12/19 12:25:28;;;;;;;1.98;0.95;;;;;;;7.25;83.79;102468.50;5080454;29;20190;-84
2021/12/19 12:28:06;;;;;;;1.58;1.02;;;;;;;7.21;83.20;102456.28;5082739;29;20040;-84
2021/12/19 12:30:45;;;;;;;0.88;0.88;;;;;;;7.23;83.27;102459.78;5049324;29;20083;-84
2021/12/19 12:33:18;;;;;;;0.77;0.77;;;;;;;7.24;83.95;102461.53;5110873;29;20548;-83
2021/12/19 12:35:50;;;;;;;0.60;0.60;;;;;;;7.27;83.59;102454.59;5094953;29;20100;-83
2021/12/19 12:38:21;;;;;;;0.50;0.50;;;;;;;7.20;83.99;102449.31;5049580;29;20032;-83
2021/12/19 12:41:03;;;;;;;0.75;0.75;;;;;;;7.16;83.75;102447.50;5090293;29;20066;-83
2021/12/19 12:43:43;;;;;;;0.50;0.50;;;;;;;7.23;83.87;102443.25;5084012;29;20078;-83
2021/12/19 12:46:18;;;;;;;0.68;0.68;;;;;;;7.22;83.76;102441.47;5064282;29;20073;-83
2021/12/19 12:48:57;;;;;;;0.68;0.68;;;;;;;7.05;84.09;102436.88;5081426;29;20038;-84
2021/12/19 12:51:35;;;;;;;0.60;0.60;;;;;;;7.03;84.26;102440.34;5080269;29;20095;-83
2021/12/19 12:54:08;;;;;;;0.40;0.40;;;;;;;7.12;84.02;102436.97;5098827;29;20032;-83
2021/12/19 12:56:45;;;;;;;0.85;0.85;;;;;;;7.10;83.95;102426.53;5098603;29;20060;-84
2021/12/19 12:59:18;;;;;;;0.73;0.73;;;;;;;7.11;84.34;102436.13;5080441;29;20039;-83
2021/12/19 13:02:05;;;;;;;0.50;0.50;;;;;;;7.14;83.42;102424.84;5051082;29;20032;-84
2021/12/19 13:04:38;;;;;;;0.40;0.40;;;;;;;7.12;83.77;102419.59;5097129;29;20040;-83
2021/12/19 13:07:10;;;;;;;1.50;1.40;;;;;;;7.17;83.83;102417.91;5097074;29;20040;-83